sensor_id;sensor_type;location;lat;lon;timestamp;P1;durP1;ratioP1;P2;durP2;ratioP2
23578;SDS011;11967;50.852;4.400;2023-06-14T00:00:17;7.03;;;5.55;;
23578;SDS011;11967;50.852;4.400;2023-06-14T00:02:43;10.18;;;5.30;;
23578;SDS011;11967;50.852;4.400;2023-06-14T00:05:09;6.78;;;5.35;;
23578;SDS011;11967;50.852;4.400;2023-06-14T00:07:40;8.40;;;5.40;;
23578;SDS011;11967;50.852;4.400;2023-06-14T00:12:36;8.00;;;5.18;;
23578;SDS011;11967;50.852;4.400;2023-06-14T00:15:03;11.77;;;5.82;;
23578;SDS011;11967;50.852;4.400;2023-06-14T00:17:29;9.45;;;5.55;;
23578;SDS011;11967;50.852;4.400;2023-06-14T00:19:55;7.70;;;5.80;;
23578;SDS011;11967;50.852;4.400;2023-06-14T00:22:22;11.27;;;5.53;;
23578;SDS011;11967;50.852;4.400;2023-06-14T00:24:49;9.73;;;5.35;;
23578;SDS011;11967;50.852;4.400;2023-06-14T00:27:16;8.85;;;5.40;;
23578;SDS011;11967;50.852;4.400;2023-06-14T00:29:43;8.30;;;5.40;;
23578;SDS011;11967;50.852;4.400;2023-06-14T00:32:08;7.70;;;5.32;;
23578;SDS011;11967;50.852;4.400;2023-06-14T00:34:34;10.77;;;5.50;;
23578;SDS011;11967;50.852;4.400;2023-06-14T00:37:00;10.32;;;5.80;;
23578;SDS011;11967;50.852;4.400;2023-06-14T00:39:26;9.88;;;5.70;;
23578;SDS011;11967;50.852;4.400;2023-06-14T00:41:51;9.93;;;5.60;;
23578;SDS011;11967;50.852;4.400;2023-06-14T00:44:17;9.95;;;5.80;;
23578;SDS011;11967;50.852;4.400;2023-06-14T00:46:45;11.40;;;5.80;;
23578;SDS011;11967;50.852;4.400;2023-06-14T00:49:10;8.82;;;5.88;;
23578;SDS011;11967;50.852;4.400;2023-06-14T00:51:38;8.60;;;5.43;;
23578;SDS011;11967;50.852;4.400;2023-06-14T00:54:04;10.23;;;6.15;;
23578;SDS011;11967;50.852;4.400;2023-06-14T00:56:30;9.68;;;6.03;;
23578;SDS011;11967;50.852;4.400;2023-06-14T00:58:56;8.43;;;5.82;;
23578;SDS011;11967;50.852;4.400;2023-06-14T01:01:22;9.93;;;5.90;;
23578;SDS011;11967;50.852;4.400;2023-06-14T01:03:49;9.95;;;5.50;;
23578;SDS011;11967;50.852;4.400;2023-06-14T01:11:59;8.02;;;5.70;;
23578;SDS011;11967;50.852;4.400;2023-06-14T01:14:31;8.38;;;5.55;;
23578;SDS011;11967;50.852;4.400;2023-06-14T01:16:59;10.35;;;5.88;;
23578;SDS011;11967;50.852;4.400;2023-06-14T01:19:25;8.82;;;5.80;;
23578;SDS011;11967;50.852;4.400;2023-06-14T01:21:53;11.43;;;6.05;;
23578;SDS011;11967;50.852;4.400;2023-06-14T01:24:20;11.52;;;6.10;;
23578;SDS011;11967;50.852;4.400;2023-06-14T01:26:51;9.20;;;5.90;;
23578;SDS011;11967;50.852;4.400;2023-06-14T01:29:21;8.30;;;5.85;;
23578;SDS011;11967;50.852;4.400;2023-06-14T01:31:48;9.57;;;5.60;;
23578;SDS011;11967;50.852;4.400;2023-06-14T01:34:15;9.95;;;5.75;;
23578;SDS011;11967;50.852;4.400;2023-06-14T01:36:41;8.20;;;5.70;;
23578;SDS011;11967;50.852;4.400;2023-06-14T01:39:09;8.50;;;5.82;;
23578;SDS011;11967;50.852;4.400;2023-06-14T01:41:40;12.07;;;6.03;;
23578;SDS011;11967;50.852;4.400;2023-06-14T01:44:07;12.68;;;6.07;;
23578;SDS011;11967;50.852;4.400;2023-06-14T01:46:34;12.32;;;5.82;;
23578;SDS011;11967;50.852;4.400;2023-06-14T01:49:00;7.95;;;6.30;;
23578;SDS011;11967;50.852;4.400;2023-06-14T01:51:27;9.85;;;6.15;;
23578;SDS011;11967;50.852;4.400;2023-06-14T01:53:52;9.85;;;6.25;;
23578;SDS011;11967;50.852;4.400;2023-06-14T01:56:18;9.48;;;6.22;;
23578;SDS011;11967;50.852;4.400;2023-06-14T01:58:44;8.18;;;5.95;;
23578;SDS011;11967;50.852;4.400;2023-06-14T02:01:10;11.32;;;6.45;;
23578;SDS011;11967;50.852;4.400;2023-06-14T02:03:37;9.05;;;6.22;;
23578;SDS011;11967;50.852;4.400;2023-06-14T02:06:03;9.55;;;5.80;;
23578;SDS011;11967;50.852;4.400;2023-06-14T02:08:32;11.60;;;6.68;;
23578;SDS011;11967;50.852;4.400;2023-06-14T02:10:57;10.73;;;6.55;;
23578;SDS011;11967;50.852;4.400;2023-06-14T02:13:23;9.63;;;5.93;;
23578;SDS011;11967;50.852;4.400;2023-06-14T02:15:49;10.07;;;6.32;;
23578;SDS011;11967;50.852;4.400;2023-06-14T02:18:19;10.60;;;6.28;;
23578;SDS011;11967;50.852;4.400;2023-06-14T02:20:46;10.52;;;6.50;;
23578;SDS011;11967;50.852;4.400;2023-06-14T02:23:12;9.40;;;6.43;;
23578;SDS011;11967;50.852;4.400;2023-06-14T02:25:37;7.75;;;6.90;;
23578;SDS011;11967;50.852;4.400;2023-06-14T02:28:04;9.75;;;6.72;;
23578;SDS011;11967;50.852;4.400;2023-06-14T02:30:30;10.13;;;6.45;;
23578;SDS011;11967;50.852;4.400;2023-06-14T02:32:56;11.07;;;6.45;;
23578;SDS011;11967;50.852;4.400;2023-06-14T02:35:21;11.30;;;6.43;;
23578;SDS011;11967;50.852;4.400;2023-06-14T02:37:51;6.57;;;5.75;;
23578;SDS011;11967;50.852;4.400;2023-06-14T02:40:17;10.30;;;6.53;;
23578;SDS011;11967;50.852;4.400;2023-06-14T02:42:43;11.07;;;6.80;;
23578;SDS011;11967;50.852;4.400;2023-06-14T02:45:09;12.20;;;7.30;;
23578;SDS011;11967;50.852;4.400;2023-06-14T02:47:35;8.98;;;6.45;;
23578;SDS011;11967;50.852;4.400;2023-06-14T02:50:00;9.32;;;6.15;;
23578;SDS011;11967;50.852;4.400;2023-06-14T02:52:27;7.18;;;6.47;;
23578;SDS011;11967;50.852;4.400;2023-06-14T02:54:53;9.77;;;6.53;;
23578;SDS011;11967;50.852;4.400;2023-06-14T02:57:20;8.15;;;6.43;;
23578;SDS011;11967;50.852;4.400;2023-06-14T02:59:47;12.60;;;7.00;;
23578;SDS011;11967;50.852;4.400;2023-06-14T03:02:12;8.77;;;6.68;;
23578;SDS011;11967;50.852;4.400;2023-06-14T03:04:38;10.30;;;6.45;;
23578;SDS011;11967;50.852;4.400;2023-06-14T03:07:04;11.38;;;6.07;;
23578;SDS011;11967;50.852;4.400;2023-06-14T03:09:37;8.23;;;6.72;;
23578;SDS011;11967;50.852;4.400;2023-06-14T03:12:04;11.30;;;7.57;;
23578;SDS011;11967;50.852;4.400;2023-06-14T03:14:34;9.25;;;6.28;;
23578;SDS011;11967;50.852;4.400;2023-06-14T03:17:00;12.38;;;6.80;;
23578;SDS011;11967;50.852;4.400;2023-06-14T03:19:25;7.72;;;6.07;;
23578;SDS011;11967;50.852;4.400;2023-06-14T03:21:51;11.95;;;6.95;;
23578;SDS011;11967;50.852;4.400;2023-06-14T03:24:18;11.82;;;7.22;;
23578;SDS011;11967;50.852;4.400;2023-06-14T03:26:44;9.25;;;6.38;;
23578;SDS011;11967;50.852;4.400;2023-06-14T03:29:10;13.05;;;7.50;;
23578;SDS011;11967;50.852;4.400;2023-06-14T03:31:36;11.50;;;7.70;;
23578;SDS011;11967;50.852;4.400;2023-06-14T03:34:01;14.20;;;6.97;;
23578;SDS011;11967;50.852;4.400;2023-06-14T03:36:27;7.43;;;6.63;;
23578;SDS011;11967;50.852;4.400;2023-06-14T03:38:53;15.20;;;8.05;;
23578;SDS011;11967;50.852;4.400;2023-06-14T03:41:19;11.90;;;7.60;;
23578;SDS011;11967;50.852;4.400;2023-06-14T03:43:45;10.25;;;7.15;;
23578;SDS011;11967;50.852;4.400;2023-06-14T03:46:11;12.70;;;7.30;;
23578;SDS011;11967;50.852;4.400;2023-06-14T03:48:37;10.50;;;7.20;;
23578;SDS011;11967;50.852;4.400;2023-06-14T03:51:03;11.57;;;7.68;;
23578;SDS011;11967;50.852;4.400;2023-06-14T03:53:29;12.45;;;7.80;;
23578;SDS011;11967;50.852;4.400;2023-06-14T03:55:55;12.15;;;6.97;;
23578;SDS011;11967;50.852;4.400;2023-06-14T03:58:22;9.30;;;7.18;;
23578;SDS011;11967;50.852;4.400;2023-06-14T04:00:48;13.35;;;7.20;;
23578;SDS011;11967;50.852;4.400;2023-06-14T04:03:13;9.15;;;6.90;;
23578;SDS011;11967;50.852;4.400;2023-06-14T04:05:40;12.57;;;7.30;;
23578;SDS011;11967;50.852;4.400;2023-06-14T04:08:07;11.40;;;7.22;;
23578;SDS011;11967;50.852;4.400;2023-06-14T04:10:39;9.65;;;7.25;;
23578;SDS011;11967;50.852;4.400;2023-06-14T04:13:05;10.20;;;6.28;;
23578;SDS011;11967;50.852;4.400;2023-06-14T04:15:32;10.65;;;7.78;;
23578;SDS011;11967;50.852;4.400;2023-06-14T04:17:58;13.40;;;7.93;;
23578;SDS011;11967;50.852;4.400;2023-06-14T04:20:24;9.40;;;7.57;;
23578;SDS011;11967;50.852;4.400;2023-06-14T04:22:50;11.18;;;8.00;;
23578;SDS011;11967;50.852;4.400;2023-06-14T04:25:17;12.15;;;8.65;;
23578;SDS011;11967;50.852;4.400;2023-06-14T04:27:45;13.68;;;7.88;;
23578;SDS011;11967;50.852;4.400;2023-06-14T04:30:12;13.65;;;8.02;;
23578;SDS011;11967;50.852;4.400;2023-06-14T04:32:38;13.55;;;7.57;;
23578;SDS011;11967;50.852;4.400;2023-06-14T04:35:07;13.43;;;7.38;;
23578;SDS011;11967;50.852;4.400;2023-06-14T04:37:34;10.90;;;7.22;;
23578;SDS011;11967;50.852;4.400;2023-06-14T04:39:59;14.52;;;7.88;;
23578;SDS011;11967;50.852;4.400;2023-06-14T04:42:28;10.32;;;7.38;;
23578;SDS011;11967;50.852;4.400;2023-06-14T04:44:56;11.55;;;7.10;;
23578;SDS011;11967;50.852;4.400;2023-06-14T04:47:23;14.32;;;6.80;;
23578;SDS011;11967;50.852;4.400;2023-06-14T04:49:50;11.40;;;6.88;;
23578;SDS011;11967;50.852;4.400;2023-06-14T04:52:17;14.32;;;7.40;;
23578;SDS011;11967;50.852;4.400;2023-06-14T04:54:46;10.68;;;6.45;;
23578;SDS011;11967;50.852;4.400;2023-06-14T04:57:12;12.43;;;6.80;;
23578;SDS011;11967;50.852;4.400;2023-06-14T04:59:39;12.05;;;7.75;;
23578;SDS011;11967;50.852;4.400;2023-06-14T05:02:05;10.55;;;7.28;;
23578;SDS011;11967;50.852;4.400;2023-06-14T05:04:32;12.05;;;7.97;;
23578;SDS011;11967;50.852;4.400;2023-06-14T05:06:57;10.38;;;7.07;;
23578;SDS011;11967;50.852;4.400;2023-06-14T05:09:23;9.82;;;7.13;;
23578;SDS011;11967;50.852;4.400;2023-06-14T05:11:49;8.60;;;6.35;;
23578;SDS011;11967;50.852;4.400;2023-06-14T05:14:15;13.68;;;7.38;;
23578;SDS011;11967;50.852;4.400;2023-06-14T05:16:41;10.43;;;7.18;;
23578;SDS011;11967;50.852;4.400;2023-06-14T05:19:07;9.23;;;6.95;;
23578;SDS011;11967;50.852;4.400;2023-06-14T05:21:34;10.27;;;6.50;;
23578;SDS011;11967;50.852;4.400;2023-06-14T05:24:00;10.82;;;6.72;;
23578;SDS011;11967;50.852;4.400;2023-06-14T05:26:26;9.80;;;6.97;;
23578;SDS011;11967;50.852;4.400;2023-06-14T05:28:57;9.75;;;6.82;;
23578;SDS011;11967;50.852;4.400;2023-06-14T05:31:24;13.30;;;7.35;;
23578;SDS011;11967;50.852;4.400;2023-06-14T05:33:51;16.08;;;7.82;;
23578;SDS011;11967;50.852;4.400;2023-06-14T05:36:17;13.07;;;6.85;;
23578;SDS011;11967;50.852;4.400;2023-06-14T05:38:43;13.50;;;6.82;;
23578;SDS011;11967;50.852;4.400;2023-06-14T05:41:09;11.73;;;6.93;;
23578;SDS011;11967;50.852;4.400;2023-06-14T05:43:35;19.83;;;7.38;;
23578;SDS011;11967;50.852;4.400;2023-06-14T05:46:01;13.38;;;7.28;;
23578;SDS011;11967;50.852;4.400;2023-06-14T05:48:26;8.55;;;6.43;;
23578;SDS011;11967;50.852;4.400;2023-06-14T05:50:53;11.20;;;6.70;;
23578;SDS011;11967;50.852;4.400;2023-06-14T05:53:19;17.55;;;7.90;;
23578;SDS011;11967;50.852;4.400;2023-06-14T05:55:45;11.57;;;7.32;;
23578;SDS011;11967;50.852;4.400;2023-06-14T05:58:11;13.50;;;6.90;;
23578;SDS011;11967;50.852;4.400;2023-06-14T06:00:38;8.75;;;6.25;;
23578;SDS011;11967;50.852;4.400;2023-06-14T06:03:04;12.60;;;6.55;;
23578;SDS011;11967;50.852;4.400;2023-06-14T06:05:30;18.73;;;7.93;;
23578;SDS011;11967;50.852;4.400;2023-06-14T06:07:55;11.18;;;6.65;;
23578;SDS011;11967;50.852;4.400;2023-06-14T06:10:21;13.65;;;7.47;;
23578;SDS011;11967;50.852;4.400;2023-06-14T06:12:47;18.30;;;8.00;;
23578;SDS011;11967;50.852;4.400;2023-06-14T06:15:13;13.73;;;7.18;;
23578;SDS011;11967;50.852;4.400;2023-06-14T06:17:39;13.20;;;6.85;;
23578;SDS011;11967;50.852;4.400;2023-06-14T06:20:05;11.98;;;6.90;;
23578;SDS011;11967;50.852;4.400;2023-06-14T06:22:33;18.77;;;7.28;;
23578;SDS011;11967;50.852;4.400;2023-06-14T06:24:59;13.23;;;7.63;;
23578;SDS011;11967;50.852;4.400;2023-06-14T06:27:25;12.60;;;7.60;;
23578;SDS011;11967;50.852;4.400;2023-06-14T06:29:51;12.30;;;7.82;;
23578;SDS011;11967;50.852;4.400;2023-06-14T06:32:18;16.60;;;8.15;;
23578;SDS011;11967;50.852;4.400;2023-06-14T06:34:43;13.88;;;7.60;;
23578;SDS011;11967;50.852;4.400;2023-06-14T06:37:09;16.02;;;8.20;;
23578;SDS011;11967;50.852;4.400;2023-06-14T06:39:35;16.13;;;8.00;;
23578;SDS011;11967;50.852;4.400;2023-06-14T06:42:01;12.93;;;8.07;;
23578;SDS011;11967;50.852;4.400;2023-06-14T06:44:27;12.32;;;7.63;;
23578;SDS011;11967;50.852;4.400;2023-06-14T06:46:52;19.70;;;7.88;;
23578;SDS011;11967;50.852;4.400;2023-06-14T06:49:18;10.13;;;7.38;;
23578;SDS011;11967;50.852;4.400;2023-06-14T06:51:48;16.58;;;7.15;;
23578;SDS011;11967;50.852;4.400;2023-06-14T06:54:25;20.00;;;9.52;;
23578;SDS011;11967;50.852;4.400;2023-06-14T06:56:51;11.48;;;8.02;;
23578;SDS011;11967;50.852;4.400;2023-06-14T06:59:17;16.80;;;7.35;;
23578;SDS011;11967;50.852;4.400;2023-06-14T07:01:42;18.45;;;8.82;;
23578;SDS011;11967;50.852;4.400;2023-06-14T07:04:08;14.65;;;8.30;;
23578;SDS011;11967;50.852;4.400;2023-06-14T07:06:33;60.28;;;26.45;;
23578;SDS011;11967;50.852;4.400;2023-06-14T07:08:59;29.67;;;12.48;;
23578;SDS011;11967;50.852;4.400;2023-06-14T07:11:26;11.82;;;8.35;;
23578;SDS011;11967;50.852;4.400;2023-06-14T07:13:52;16.55;;;8.55;;
23578;SDS011;11967;50.852;4.400;2023-06-14T07:16:18;21.83;;;11.95;;
23578;SDS011;11967;50.852;4.400;2023-06-14T07:18:43;28.65;;;14.02;;
23578;SDS011;11967;50.852;4.400;2023-06-14T07:21:09;15.20;;;8.73;;
23578;SDS011;11967;50.852;4.400;2023-06-14T07:23:35;15.63;;;8.57;;
23578;SDS011;11967;50.852;4.400;2023-06-14T07:26:01;13.38;;;8.05;;
23578;SDS011;11967;50.852;4.400;2023-06-14T07:28:26;16.95;;;7.55;;
23578;SDS011;11967;50.852;4.400;2023-06-14T07:30:55;13.27;;;7.07;;
23578;SDS011;11967;50.852;4.400;2023-06-14T07:33:20;16.40;;;7.22;;
23578;SDS011;11967;50.852;4.400;2023-06-14T07:35:46;12.93;;;6.63;;
23578;SDS011;11967;50.852;4.400;2023-06-14T07:38:13;17.10;;;7.63;;
23578;SDS011;11967;50.852;4.400;2023-06-14T07:40:38;14.60;;;7.80;;
23578;SDS011;11967;50.852;4.400;2023-06-14T07:43:04;15.98;;;7.20;;
23578;SDS011;11967;50.852;4.400;2023-06-14T07:45:30;16.73;;;7.75;;
23578;SDS011;11967;50.852;4.400;2023-06-14T07:47:56;13.55;;;7.40;;
23578;SDS011;11967;50.852;4.400;2023-06-14T07:50:21;13.10;;;7.65;;
23578;SDS011;11967;50.852;4.400;2023-06-14T07:52:47;15.45;;;8.05;;
23578;SDS011;11967;50.852;4.400;2023-06-14T07:55:14;15.55;;;8.73;;
23578;SDS011;11967;50.852;4.400;2023-06-14T07:57:41;18.60;;;7.38;;
23578;SDS011;11967;50.852;4.400;2023-06-14T08:00:08;15.30;;;7.25;;
23578;SDS011;11967;50.852;4.400;2023-06-14T08:02:36;12.93;;;7.30;;
23578;SDS011;11967;50.852;4.400;2023-06-14T08:05:01;14.25;;;7.68;;
23578;SDS011;11967;50.852;4.400;2023-06-14T08:07:27;17.33;;;7.90;;
23578;SDS011;11967;50.852;4.400;2023-06-14T08:09:53;14.15;;;7.35;;
23578;SDS011;11967;50.852;4.400;2023-06-14T08:12:18;13.73;;;7.28;;
23578;SDS011;11967;50.852;4.400;2023-06-14T08:14:44;12.02;;;7.05;;
23578;SDS011;11967;50.852;4.400;2023-06-14T08:17:10;9.48;;;7.13;;
23578;SDS011;11967;50.852;4.400;2023-06-14T08:19:35;12.95;;;6.97;;
23578;SDS011;11967;50.852;4.400;2023-06-14T08:22:01;13.32;;;7.15;;
23578;SDS011;11967;50.852;4.400;2023-06-14T08:24:28;11.60;;;7.78;;
23578;SDS011;11967;50.852;4.400;2023-06-14T08:26:54;10.95;;;7.40;;
23578;SDS011;11967;50.852;4.400;2023-06-14T08:29:21;11.50;;;6.35;;
23578;SDS011;11967;50.852;4.400;2023-06-14T08:31:47;11.70;;;6.20;;
23578;SDS011;11967;50.852;4.400;2023-06-14T08:34:13;11.35;;;6.82;;
23578;SDS011;11967;50.852;4.400;2023-06-14T08:36:38;11.63;;;7.30;;
23578;SDS011;11967;50.852;4.400;2023-06-14T08:39:04;12.98;;;6.63;;
23578;SDS011;11967;50.852;4.400;2023-06-14T08:41:31;13.43;;;7.00;;
23578;SDS011;11967;50.852;4.400;2023-06-14T08:43:57;13.40;;;6.53;;
23578;SDS011;11967;50.852;4.400;2023-06-14T08:46:25;12.25;;;6.60;;
23578;SDS011;11967;50.852;4.400;2023-06-14T08:48:52;10.50;;;6.93;;
23578;SDS011;11967;50.852;4.400;2023-06-14T08:51:23;12.48;;;6.53;;
23578;SDS011;11967;50.852;4.400;2023-06-14T08:53:55;12.93;;;6.47;;
23578;SDS011;11967;50.852;4.400;2023-06-14T08:56:26;10.50;;;6.07;;
23578;SDS011;11967;50.852;4.400;2023-06-14T08:58:54;13.23;;;6.65;;
23578;SDS011;11967;50.852;4.400;2023-06-14T09:01:21;12.35;;;6.80;;
23578;SDS011;11967;50.852;4.400;2023-06-14T09:03:48;16.48;;;7.30;;
23578;SDS011;11967;50.852;4.400;2023-06-14T09:06:14;13.18;;;6.47;;
23578;SDS011;11967;50.852;4.400;2023-06-14T09:08:44;16.15;;;6.57;;
23578;SDS011;11967;50.852;4.400;2023-06-14T09:11:11;12.85;;;7.05;;
23578;SDS011;11967;50.852;4.400;2023-06-14T09:13:38;14.13;;;7.15;;
23578;SDS011;11967;50.852;4.400;2023-06-14T09:16:05;18.77;;;8.05;;
23578;SDS011;11967;50.852;4.400;2023-06-14T09:18:50;14.32;;;7.80;;
23578;SDS011;11967;50.852;4.400;2023-06-14T09:21:16;17.83;;;7.70;;
23578;SDS011;11967;50.852;4.400;2023-06-14T09:23:44;11.98;;;7.03;;
23578;SDS011;11967;50.852;4.400;2023-06-14T09:31:15;13.43;;;7.28;;
23578;SDS011;11967;50.852;4.400;2023-06-14T09:33:45;14.75;;;7.20;;
23578;SDS011;11967;50.852;4.400;2023-06-14T09:36:16;11.27;;;6.30;;
23578;SDS011;11967;50.852;4.400;2023-06-14T09:38:51;24.10;;;13.40;;
23578;SDS011;11967;50.852;4.400;2023-06-14T09:41:17;14.90;;;8.70;;
23578;SDS011;11967;50.852;4.400;2023-06-14T09:43:43;17.55;;;8.05;;
23578;SDS011;11967;50.852;4.400;2023-06-14T09:46:10;12.20;;;8.13;;
23578;SDS011;11967;50.852;4.400;2023-06-14T09:48:36;15.52;;;7.97;;
23578;SDS011;11967;50.852;4.400;2023-06-14T09:51:02;17.70;;;7.70;;
23578;SDS011;11967;50.852;4.400;2023-06-14T09:53:29;15.80;;;7.30;;
23578;SDS011;11967;50.852;4.400;2023-06-14T09:55:55;12.38;;;7.30;;
23578;SDS011;11967;50.852;4.400;2023-06-14T09:58:23;16.00;;;7.43;;
23578;SDS011;11967;50.852;4.400;2023-06-14T10:00:56;16.67;;;6.68;;
23578;SDS011;11967;50.852;4.400;2023-06-14T10:03:27;11.13;;;6.47;;
23578;SDS011;11967;50.852;4.400;2023-06-14T10:05:55;10.30;;;5.95;;
23578;SDS011;11967;50.852;4.400;2023-06-14T10:08:28;11.77;;;6.80;;
23578;SDS011;11967;50.852;4.400;2023-06-14T10:11:02;11.45;;;6.20;;
23578;SDS011;11967;50.852;4.400;2023-06-14T10:13:28;12.65;;;6.57;;
23578;SDS011;11967;50.852;4.400;2023-06-14T10:16:44;11.13;;;6.65;;
23578;SDS011;11967;50.852;4.400;2023-06-14T10:18:53;8.90;;;5.82;;
23578;SDS011;11967;50.852;4.400;2023-06-14T10:21:28;10.70;;;6.40;;
23578;SDS011;11967;50.852;4.400;2023-06-14T10:24:03;14.05;;;6.15;;
23578;SDS011;11967;50.852;4.400;2023-06-14T10:26:32;12.00;;;5.78;;
23578;SDS011;11967;50.852;4.400;2023-06-14T10:29:07;11.00;;;6.28;;
23578;SDS011;11967;50.852;4.400;2023-06-14T10:34:10;10.30;;;6.07;;
23578;SDS011;11967;50.852;4.400;2023-06-14T10:36:37;10.52;;;6.03;;
23578;SDS011;11967;50.852;4.400;2023-06-14T10:39:08;13.75;;;5.78;;
23578;SDS011;11967;50.852;4.400;2023-06-14T10:41:41;9.20;;;6.22;;
23578;SDS011;11967;50.852;4.400;2023-06-14T10:46:39;8.52;;;6.55;;
23578;SDS011;11967;50.852;4.400;2023-06-14T10:49:05;9.98;;;6.10;;
23578;SDS011;11967;50.852;4.400;2023-06-14T10:51:44;11.57;;;5.30;;
23578;SDS011;11967;50.852;4.400;2023-06-14T10:54:20;9.88;;;5.97;;
23578;SDS011;11967;50.852;4.400;2023-06-14T10:56:50;8.85;;;5.30;;
23578;SDS011;11967;50.852;4.400;2023-06-14T10:59:18;9.27;;;5.43;;
23578;SDS011;11967;50.852;4.400;2023-06-14T11:04:43;12.10;;;5.43;;
23578;SDS011;11967;50.852;4.400;2023-06-14T11:12:48;9.25;;;5.45;;
23578;SDS011;11967;50.852;4.400;2023-06-14T11:15:16;11.73;;;5.43;;
23578;SDS011;11967;50.852;4.400;2023-06-14T11:17:51;11.68;;;5.43;;
23578;SDS011;11967;50.852;4.400;2023-06-14T11:20:24;9.38;;;5.55;;
23578;SDS011;11967;50.852;4.400;2023-06-14T11:22:51;11.43;;;5.40;;
23578;SDS011;11967;50.852;4.400;2023-06-14T11:25:17;11.15;;;5.35;;
23578;SDS011;11967;50.852;4.400;2023-06-14T11:27:43;14.30;;;5.22;;
23578;SDS011;11967;50.852;4.400;2023-06-14T11:30:09;11.45;;;5.47;;
23578;SDS011;11967;50.852;4.400;2023-06-14T11:32:36;11.32;;;5.00;;
23578;SDS011;11967;50.852;4.400;2023-06-14T11:35:03;9.63;;;4.97;;
23578;SDS011;11967;50.852;4.400;2023-06-14T11:37:30;11.32;;;5.00;;
23578;SDS011;11967;50.852;4.400;2023-06-14T11:40:00;10.85;;;4.90;;
23578;SDS011;11967;50.852;4.400;2023-06-14T11:42:27;8.77;;;4.85;;
23578;SDS011;11967;50.852;4.400;2023-06-14T11:44:53;11.73;;;4.90;;
23578;SDS011;11967;50.852;4.400;2023-06-14T11:47:20;12.85;;;4.63;;
23578;SDS011;11967;50.852;4.400;2023-06-14T11:49:46;9.63;;;4.68;;
23578;SDS011;11967;50.852;4.400;2023-06-14T11:52:12;14.57;;;4.70;;
23578;SDS011;11967;50.852;4.400;2023-06-14T11:54:38;8.27;;;5.03;;
23578;SDS011;11967;50.852;4.400;2023-06-14T11:57:07;12.77;;;5.25;;
23578;SDS011;11967;50.852;4.400;2023-06-14T11:59:43;11.82;;;4.97;;
23578;SDS011;11967;50.852;4.400;2023-06-14T12:02:09;12.02;;;4.82;;
23578;SDS011;11967;50.852;4.400;2023-06-14T12:04:40;13.15;;;5.20;;
23578;SDS011;11967;50.852;4.400;2023-06-14T12:07:13;13.27;;;5.70;;
23578;SDS011;11967;50.852;4.400;2023-06-14T12:09:41;13.43;;;5.57;;
23578;SDS011;11967;50.852;4.400;2023-06-14T12:12:11;14.02;;;5.30;;
23578;SDS011;11967;50.852;4.400;2023-06-14T12:14:37;7.45;;;4.72;;
23578;SDS011;11967;50.852;4.400;2023-06-14T12:17:07;10.88;;;5.03;;
23578;SDS011;11967;50.852;4.400;2023-06-14T12:19:33;10.20;;;4.60;;
23578;SDS011;11967;50.852;4.400;2023-06-14T12:22:06;11.65;;;4.90;;
23578;SDS011;11967;50.852;4.400;2023-06-14T12:24:38;11.40;;;5.00;;
23578;SDS011;11967;50.852;4.400;2023-06-14T12:27:04;9.98;;;4.70;;
23578;SDS011;11967;50.852;4.400;2023-06-14T12:29:30;9.65;;;5.20;;
23578;SDS011;11967;50.852;4.400;2023-06-14T12:31:57;9.13;;;4.82;;
23578;SDS011;11967;50.852;4.400;2023-06-14T12:34:23;11.00;;;5.30;;
23578;SDS011;11967;50.852;4.400;2023-06-14T12:36:50;9.20;;;5.10;;
23578;SDS011;11967;50.852;4.400;2023-06-14T12:39:16;10.55;;;4.53;;
23578;SDS011;11967;50.852;4.400;2023-06-14T12:41:41;7.60;;;4.50;;
23578;SDS011;11967;50.852;4.400;2023-06-14T12:44:07;9.88;;;4.50;;
23578;SDS011;11967;50.852;4.400;2023-06-14T12:46:33;10.73;;;4.78;;
23578;SDS011;11967;50.852;4.400;2023-06-14T12:49:00;9.63;;;4.30;;
23578;SDS011;11967;50.852;4.400;2023-06-14T12:51:26;11.80;;;4.28;;
23578;SDS011;11967;50.852;4.400;2023-06-14T12:53:53;10.35;;;4.05;;
23578;SDS011;11967;50.852;4.400;2023-06-14T12:56:19;9.23;;;4.65;;
23578;SDS011;11967;50.852;4.400;2023-06-14T12:58:45;9.07;;;4.22;;
23578;SDS011;11967;50.852;4.400;2023-06-14T13:01:12;8.65;;;4.47;;
23578;SDS011;11967;50.852;4.400;2023-06-14T13:03:40;7.57;;;4.22;;
23578;SDS011;11967;50.852;4.400;2023-06-14T13:06:05;11.48;;;4.43;;
23578;SDS011;11967;50.852;4.400;2023-06-14T13:08:31;9.85;;;4.15;;
23578;SDS011;11967;50.852;4.400;2023-06-14T13:10:58;11.88;;;4.60;;
23578;SDS011;11967;50.852;4.400;2023-06-14T13:13:23;7.70;;;4.28;;
23578;SDS011;11967;50.852;4.400;2023-06-14T13:15:49;8.60;;;4.38;;
23578;SDS011;11967;50.852;4.400;2023-06-14T13:18:16;8.18;;;4.18;;
23578;SDS011;11967;50.852;4.400;2023-06-14T13:20:42;7.68;;;3.72;;
23578;SDS011;11967;50.852;4.400;2023-06-14T13:23:08;6.05;;;3.65;;
23578;SDS011;11967;50.852;4.400;2023-06-14T13:25:35;8.32;;;3.85;;
23578;SDS011;11967;50.852;4.400;2023-06-14T13:28:03;9.52;;;3.90;;
23578;SDS011;11967;50.852;4.400;2023-06-14T13:30:30;8.25;;;3.72;;
23578;SDS011;11967;50.852;4.400;2023-06-14T13:32:57;8.70;;;4.00;;
23578;SDS011;11967;50.852;4.400;2023-06-14T13:35:23;8.55;;;3.70;;
23578;SDS011;11967;50.852;4.400;2023-06-14T13:37:49;6.93;;;3.88;;
23578;SDS011;11967;50.852;4.400;2023-06-14T13:40:16;8.57;;;3.78;;
23578;SDS011;11967;50.852;4.400;2023-06-14T13:42:42;9.55;;;3.50;;
23578;SDS011;11967;50.852;4.400;2023-06-14T13:45:11;5.85;;;3.33;;
23578;SDS011;11967;50.852;4.400;2023-06-14T13:47:38;5.13;;;3.90;;
23578;SDS011;11967;50.852;4.400;2023-06-14T13:50:04;6.63;;;3.55;;
23578;SDS011;11967;50.852;4.400;2023-06-14T13:52:30;6.03;;;3.78;;
23578;SDS011;11967;50.852;4.400;2023-06-14T13:54:56;10.18;;;3.47;;
23578;SDS011;11967;50.852;4.400;2023-06-14T13:57:22;10.50;;;4.20;;
23578;SDS011;11967;50.852;4.400;2023-06-14T13:59:47;6.13;;;3.00;;
23578;SDS011;11967;50.852;4.400;2023-06-14T14:02:13;11.35;;;3.70;;
23578;SDS011;11967;50.852;4.400;2023-06-14T14:04:40;11.40;;;3.75;;
23578;SDS011;11967;50.852;4.400;2023-06-14T14:07:08;14.77;;;3.55;;
23578;SDS011;11967;50.852;4.400;2023-06-14T14:09:34;13.60;;;3.83;;
23578;SDS011;11967;50.852;4.400;2023-06-14T14:12:00;15.07;;;3.63;;
23578;SDS011;11967;50.852;4.400;2023-06-14T14:14:30;8.68;;;3.42;;
23578;SDS011;11967;50.852;4.400;2023-06-14T14:16:57;5.80;;;3.28;;
23578;SDS011;11967;50.852;4.400;2023-06-14T14:19:22;6.85;;;2.80;;
23578;SDS011;11967;50.852;4.400;2023-06-14T14:21:48;6.45;;;3.00;;
23578;SDS011;11967;50.852;4.400;2023-06-14T14:24:14;5.05;;;2.70;;
23578;SDS011;11967;50.852;4.400;2023-06-14T14:26:41;5.38;;;2.33;;
23578;SDS011;11967;50.852;4.400;2023-06-14T14:29:07;10.80;;;3.05;;
23578;SDS011;11967;50.852;4.400;2023-06-14T14:31:33;8.40;;;2.97;;
23578;SDS011;11967;50.852;4.400;2023-06-14T14:33:59;8.88;;;2.60;;
23578;SDS011;11967;50.852;4.400;2023-06-14T14:36:24;5.90;;;2.80;;
23578;SDS011;11967;50.852;4.400;2023-06-14T14:38:50;6.07;;;2.67;;
23578;SDS011;11967;50.852;4.400;2023-06-14T14:41:18;4.30;;;2.33;;
23578;SDS011;11967;50.852;4.400;2023-06-14T14:43:44;3.42;;;2.40;;
23578;SDS011;11967;50.852;4.400;2023-06-14T14:46:10;2.70;;;1.90;;
23578;SDS011;11967;50.852;4.400;2023-06-14T14:48:35;5.47;;;2.20;;
23578;SDS011;11967;50.852;4.400;2023-06-14T14:51:01;8.43;;;2.45;;
23578;SDS011;11967;50.852;4.400;2023-06-14T14:53:27;4.05;;;2.20;;
23578;SDS011;11967;50.852;4.400;2023-06-14T14:55:53;3.50;;;1.90;;
23578;SDS011;11967;50.852;4.400;2023-06-14T14:58:18;5.63;;;2.35;;
23578;SDS011;11967;50.852;4.400;2023-06-14T15:00:45;8.68;;;2.45;;
23578;SDS011;11967;50.852;4.400;2023-06-14T15:03:11;3.97;;;2.10;;